sensor_id;sensor_type;location;lat;lon;timestamp;pressure;altitude;pressure_sealevel;temperature;humidity
69848;BME280;57143;55.940;37.496;2023-01-09T00:01:17;101231.31;;;-15.03;100.00
69848;BME280;57143;55.940;37.496;2023-01-09T00:03:45;101253.63;;;-14.90;100.00
69848;BME280;57143;55.940;37.496;2023-01-09T00:06:12;101237.38;;;-15.05;100.00
69848;BME280;57143;55.940;37.496;2023-01-09T00:08:40;101262.41;;;-14.97;100.00
69848;BME280;57143;55.940;37.496;2023-01-09T00:11:07;101252.09;;;-15.03;100.00
69848;BME280;57143;55.940;37.496;2023-01-09T00:13:35;101265.06;;;-15.00;100.00
69848;BME280;57143;55.940;37.496;2023-01-09T00:16:03;101262.56;;;-15.09;100.00
69848;BME280;57143;55.940;37.496;2023-01-09T00:18:31;101254.03;;;-15.18;100.00
69848;BME280;57143;55.940;37.496;2023-01-09T00:20:59;101264.34;;;-15.12;100.00
69848;BME280;57143;55.940;37.496;2023-01-09T00:23:26;101257.41;;;-15.10;100.00
69848;BME280;57143;55.940;37.496;2023-01-09T00:26:01;101268.75;;;-15.17;100.00
69848;BME280;57143;55.940;37.496;2023-01-09T00:28:28;101280.84;;;-15.13;100.00
69848;BME280;57143;55.940;37.496;2023-01-09T00:30:56;101273.84;;;-15.11;100.00
69848;BME280;57143;55.940;37.496;2023-01-09T00:33:26;101266.06;;;-15.13;100.00
69848;BME280;57143;55.940;37.496;2023-01-09T00:35:56;101253.06;;;-15.10;100.00
69848;BME280;57143;55.940;37.496;2023-01-09T00:38:23;101254.03;;;-15.18;100.00
69848;BME280;57143;55.940;37.496;2023-01-09T00:40:51;101248.16;;;-15.32;100.00
69848;BME280;57143;55.940;37.496;2023-01-09T00:43:19;101253.09;;;-15.14;100.00
69848;BME280;57143;55.940;37.496;2023-01-09T00:45:48;101239.44;;;-15.28;100.00
69848;BME280;57143;55.940;37.496;2023-01-09T00:48:20;101114.06;;;-16.05;100.00
69848;BME280;57143;55.940;37.496;2023-01-09T00:50:51;101255.06;;;-15.31;100.00
69848;BME280;57143;55.940;37.496;2023-01-09T00:53:21;101244.00;;;-15.42;100.00
69848;BME280;57143;55.940;37.496;2023-01-09T00:55:49;101255.97;;;-15.35;100.00
69848;BME280;57143;55.940;37.496;2023-01-09T00:58:17;101248.19;;;-15.37;100.00
69848;BME280;57143;55.940;37.496;2023-01-09T01:00:44;101200.91;;;-15.60;100.00
69848;BME280;57143;55.940;37.496;2023-01-09T01:03:11;101224.13;;;-15.48;100.00
69848;BME280;57143;55.940;37.496;2023-01-09T01:05:38;101249.19;;;-15.44;100.00
69848;BME280;57143;55.940;37.496;2023-01-09T01:08:24;101200.88;;;-15.57;100.00
69848;BME280;57143;55.940;37.496;2023-01-09T01:10:52;101157.94;;;-15.87;100.00
69848;BME280;57143;55.940;37.496;2023-01-09T01:13:19;101208.81;;;-15.69;100.00
69848;BME280;57143;55.940;37.496;2023-01-09T01:15:46;101232.78;;;-15.46;100.00
69848;BME280;57143;55.940;37.496;2023-01-09T01:18:14;101240.63;;;-15.52;100.00
69848;BME280;57143;55.940;37.496;2023-01-09T01:20:42;101235.50;;;-15.59;100.00
69848;BME280;57143;55.940;37.496;2023-01-09T01:23:10;101227.84;;;-15.67;100.00
69848;BME280;57143;55.940;37.496;2023-01-09T01:25:40;101244.13;;;-15.56;100.00
69848;BME280;57143;55.940;37.496;2023-01-09T01:28:07;101242.50;;;-15.65;100.00
69848;BME280;57143;55.940;37.496;2023-01-09T01:30:37;101233.25;;;-15.88;100.00
69848;BME280;57143;55.940;37.496;2023-01-09T01:33:04;101248.75;;;-15.82;100.00
69848;BME280;57143;55.940;37.496;2023-01-09T01:35:31;101204.06;;;-16.11;100.00
69848;BME280;57143;55.940;37.496;2023-01-09T01:37:59;101241.09;;;-15.93;100.00
69848;BME280;57143;55.940;37.496;2023-01-09T01:40:26;101237.69;;;-15.98;100.00
69848;BME280;57143;55.940;37.496;2023-01-09T01:42:55;101235.19;;;-16.10;100.00
69848;BME280;57143;55.940;37.496;2023-01-09T01:45:24;101235.28;;;-16.16;100.00
69848;BME280;57143;55.940;37.496;2023-01-09T01:47:56;101245.72;;;-16.23;100.00
69848;BME280;57143;55.940;37.496;2023-01-09T01:50:29;101207.88;;;-16.45;100.00
69848;BME280;57143;55.940;37.496;2023-01-09T01:53:03;101255.34;;;-16.34;100.00
69848;BME280;57143;55.940;37.496;2023-01-09T01:55:33;101229.44;;;-16.40;100.00
69848;BME280;57143;55.940;37.496;2023-01-09T01:58:04;101251.00;;;-16.34;100.00
69848;BME280;57143;55.940;37.496;2023-01-09T02:00:37;101209.78;;;-16.64;100.00
69848;BME280;57143;55.940;37.496;2023-01-09T02:03:06;101237.22;;;-16.40;100.00
69848;BME280;57143;55.940;37.496;2023-01-09T02:05:35;101260.47;;;-16.25;100.00
69848;BME280;57143;55.940;37.496;2023-01-09T02:08:05;101257.94;;;-16.39;100.00
69848;BME280;57143;55.940;37.496;2023-01-09T02:10:33;101251.03;;;-16.38;100.00
69848;BME280;57143;55.940;37.496;2023-01-09T02:13:02;101215.72;;;-16.48;100.00
69848;BME280;57143;55.940;37.496;2023-01-09T02:15:39;101188.25;;;-16.73;100.00
69848;BME280;57143;55.940;37.496;2023-01-09T02:18:43;101176.31;;;-16.90;100.00
69848;BME280;57143;55.940;37.496;2023-01-09T02:21:16;101239.06;;;-16.48;100.00
69848;BME280;57143;55.940;37.496;2023-01-09T02:24:15;101233.69;;;-16.32;100.00
69848;BME280;57143;55.940;37.496;2023-01-09T02:26:56;101238.25;;;-16.53;100.00
69848;BME280;57143;55.940;37.496;2023-01-09T02:32:57;101178.94;;;-16.96;100.00
69848;BME280;57143;55.940;37.496;2023-01-09T02:35:34;101216.88;;;-16.84;100.00
69848;BME280;57143;55.940;37.496;2023-01-09T02:38:16;101232.44;;;-16.87;100.00
69848;BME280;57143;55.940;37.496;2023-01-09T02:40:51;101153.50;;;-17.60;100.00
69848;BME280;57143;55.940;37.496;2023-01-09T02:43:19;101219.72;;;-17.23;100.00
69848;BME280;57143;55.940;37.496;2023-01-09T02:45:47;101234.38;;;-17.25;100.00
69848;BME280;57143;55.940;37.496;2023-01-09T02:48:15;101241.31;;;-17.23;100.00
69848;BME280;57143;55.940;37.496;2023-01-09T02:50:48;101241.31;;;-17.30;100.00
69848;BME280;57143;55.940;37.496;2023-01-09T02:56:34;101227.63;;;-17.47;100.00
69848;BME280;57143;55.940;37.496;2023-01-09T02:59:22;101237.06;;;-17.42;100.00
69848;BME280;57143;55.940;37.496;2023-01-09T03:02:06;101234.63;;;-17.60;100.00
69848;BME280;57143;55.940;37.496;2023-01-09T03:04:46;101116.69;;;-18.23;100.00
69848;BME280;57143;55.940;37.496;2023-01-09T03:07:20;101219.09;;;-17.64;100.00
69848;BME280;57143;55.940;37.496;2023-01-09T03:09:55;101213.88;;;-17.61;100.00
69848;BME280;57143;55.940;37.496;2023-01-09T03:12:27;101231.97;;;-17.51;100.00
69848;BME280;57143;55.940;37.496;2023-01-09T03:14:59;101171.75;;;-17.93;100.00
69848;BME280;57143;55.940;37.496;2023-01-09T03:17:32;101172.66;;;-18.00;100.00
69848;BME280;57143;55.940;37.496;2023-01-09T03:20:06;101188.94;;;-17.80;100.00
69848;BME280;57143;55.940;37.496;2023-01-09T03:22:35;101231.19;;;-17.69;100.00
69848;BME280;57143;55.940;37.496;2023-01-09T03:25:02;101245.03;;;-17.84;100.00
69848;BME280;57143;55.940;37.496;2023-01-09T03:27:30;101234.63;;;-17.67;100.00
69848;BME280;57143;55.940;37.496;2023-01-09T03:29:58;101232.06;;;-17.70;100.00
69848;BME280;57143;55.940;37.496;2023-01-09T03:32:25;101235.47;;;-17.68;100.00
69848;BME280;57143;55.940;37.496;2023-01-09T03:34:52;101220.84;;;-17.72;100.00
69848;BME280;57143;55.940;37.496;2023-01-09T03:37:21;101198.47;;;-17.82;100.00
69848;BME280;57143;55.940;37.496;2023-01-09T03:39:48;101185.56;;;-17.91;100.00
69848;BME280;57143;55.940;37.496;2023-01-09T03:42:15;101195.03;;;-17.90;100.00
69848;BME280;57143;55.940;37.496;2023-01-09T03:44:43;101158.00;;;-18.09;100.00
69848;BME280;57143;55.940;37.496;2023-01-09T03:47:10;101156.28;;;-18.07;100.00
69848;BME280;57143;55.940;37.496;2023-01-09T03:49:37;101180.38;;;-17.90;100.00
69848;BME280;57143;55.940;37.496;2023-01-09T03:52:04;101185.53;;;-17.90;100.00
69848;BME280;57143;55.940;37.496;2023-01-09T03:54:33;101195.84;;;-17.76;100.00
69848;BME280;57143;55.940;37.496;2023-01-09T03:57:00;101083.16;;;-18.41;100.00
69848;BME280;57143;55.940;37.496;2023-01-09T03:59:27;101187.22;;;-17.80;100.00
69848;BME280;57143;55.940;37.496;2023-01-09T04:01:55;101201.03;;;-17.79;100.00
69848;BME280;57143;55.940;37.496;2023-01-09T04:04:22;101190.66;;;-17.75;100.00
69848;BME280;57143;55.940;37.496;2023-01-09T04:06:49;101194.13;;;-17.80;100.00
69848;BME280;57143;55.940;37.496;2023-01-09T04:09:16;101217.41;;;-17.80;100.00
69848;BME280;57143;55.940;37.496;2023-01-09T04:11:45;101216.56;;;-17.78;100.00
69848;BME280;57143;55.940;37.496;2023-01-09T04:14:12;101220.00;;;-17.80;100.00
69848;BME280;57143;55.940;37.496;2023-01-09T04:16:39;101225.19;;;-17.80;100.00
69848;BME280;57143;55.940;37.496;2023-01-09T04:19:06;101203.63;;;-17.82;100.00
69848;BME280;57143;55.940;37.496;2023-01-09T04:21:34;101179.53;;;-17.96;100.00
69848;BME280;57143;55.940;37.496;2023-01-09T04:24:01;101160.59;;;-18.09;100.00
69848;BME280;57143;55.940;37.496;2023-01-09T04:26:28;101208.78;;;-17.79;100.00
69848;BME280;57143;55.940;37.496;2023-01-09T04:28:57;101184.72;;;-17.99;100.00
69848;BME280;57143;55.940;37.496;2023-01-09T04:31:25;101210.53;;;-17.83;100.00
69848;BME280;57143;55.940;37.496;2023-01-09T04:33:52;101162.31;;;-18.05;100.00
69848;BME280;57143;55.940;37.496;2023-01-09T04:36:19;101207.06;;;-17.80;100.00
69848;BME280;57143;55.940;37.496;2023-01-09T04:38:46;101213.09;;;-17.75;100.00
69848;BME280;57143;55.940;37.496;2023-01-09T04:41:13;101187.28;;;-18.01;100.00
69848;BME280;57143;55.940;37.496;2023-01-09T04:44:02;101213.94;;;-17.76;100.00
69848;BME280;57143;55.940;37.496;2023-01-09T04:46:30;101210.50;;;-17.78;100.00
69848;BME280;57143;55.940;37.496;2023-01-09T04:48:57;101169.19;;;-18.04;100.00
69848;BME280;57143;55.940;37.496;2023-01-09T04:51:24;101213.09;;;-17.75;100.00
69848;BME280;57143;55.940;37.496;2023-01-09T04:53:51;101209.66;;;-17.76;100.00
69848;BME280;57143;55.940;37.496;2023-01-09T04:56:18;101192.47;;;-17.95;100.00
69848;BME280;57143;55.940;37.496;2023-01-09T04:58:45;101218.25;;;-17.71;100.00
69848;BME280;57143;55.940;37.496;2023-01-09T05:01:14;101159.72;;;-18.03;100.00
69848;BME280;57143;55.940;37.496;2023-01-09T05:03:41;101196.72;;;-17.83;100.00
69848;BME280;57143;55.940;37.496;2023-01-09T05:06:09;101207.91;;;-17.71;100.00
69848;BME280;57143;55.940;37.496;2023-01-09T05:08:36;101207.94;;;-17.75;100.00
69848;BME280;57143;55.940;37.496;2023-01-09T05:11:03;101213.94;;;-17.76;100.00
69848;BME280;57143;55.940;37.496;2023-01-09T05:13:30;101218.28;;;-17.75;100.00
69848;BME280;57143;55.940;37.496;2023-01-09T05:15:58;101160.66;;;-18.24;100.00
69848;BME280;57143;55.940;37.496;2023-01-09T05:18:26;101188.94;;;-17.80;100.00
69848;BME280;57143;55.940;37.496;2023-01-09T05:20:54;101202.69;;;-17.68;100.00
69848;BME280;57143;55.940;37.496;2023-01-09T05:23:21;101198.38;;;-17.63;100.00
69848;BME280;57143;55.940;37.496;2023-01-09T05:25:48;101147.59;;;-17.89;100.00
69848;BME280;57143;55.940;37.496;2023-01-09T05:28:16;101096.84;;;-18.19;100.00
69848;BME280;57143;55.940;37.496;2023-01-09T05:30:43;101176.88;;;-17.75;100.00
69848;BME280;57143;55.940;37.496;2023-01-09T05:33:11;101189.69;;;-17.56;100.00
69848;BME280;57143;55.940;37.496;2023-01-09T05:35:39;101191.41;;;-17.56;100.00
69848;BME280;57143;55.940;37.496;2023-01-09T05:38:06;101203.50;;;-17.54;100.00
69848;BME280;57143;55.940;37.496;2023-01-09T05:40:34;101200.94;;;-17.57;100.00
69848;BME280;57143;55.940;37.496;2023-01-09T05:43:01;101194.00;;;-17.56;100.00
69848;BME280;57143;55.940;37.496;2023-01-09T05:45:28;101190.59;;;-17.57;100.00
69848;BME280;57143;55.940;37.496;2023-01-09T05:47:56;101204.41;;;-17.62;100.00
69848;BME280;57143;55.940;37.496;2023-01-09T05:50:23;101200.09;;;-17.65;100.00
69848;BME280;57143;55.940;37.496;2023-01-09T05:52:52;101206.97;;;-17.58;100.00
69848;BME280;57143;55.940;37.496;2023-01-09T05:55:19;101169.91;;;-17.64;100.00
69848;BME280;57143;55.940;37.496;2023-01-09T05:57:47;101206.91;;;-17.46;100.00
69848;BME280;57143;55.940;37.496;2023-01-09T06:00:15;101204.28;;;-17.43;100.00
69848;BME280;57143;55.940;37.496;2023-01-09T06:02:42;101206.88;;;-17.41;100.00
69848;BME280;57143;55.940;37.496;2023-01-09T06:05:09;101198.22;;;-17.39;100.00
69848;BME280;57143;55.940;37.496;2023-01-09T06:07:37;101174.16;;;-17.50;100.00
69848;BME280;57143;55.940;37.496;2023-01-09T06:10:10;101192.16;;;-17.36;100.00
69848;BME280;57143;55.940;37.496;2023-01-09T06:12:39;101192.19;;;-17.38;100.00
69848;BME280;57143;55.940;37.496;2023-01-09T06:15:07;101152.63;;;-17.61;100.00
69848;BME280;57143;55.940;37.496;2023-01-09T06:17:35;101177.59;;;-17.48;100.00
69848;BME280;57143;55.940;37.496;2023-01-09T06:20:02;101189.59;;;-17.38;100.00
69848;BME280;57143;55.940;37.496;2023-01-09T06:22:30;101201.63;;;-17.34;100.00
69848;BME280;57143;55.940;37.496;2023-01-09T06:24:57;101182.69;;;-17.40;100.00
69848;BME280;57143;55.940;37.496;2023-01-09T06:27:26;101199.91;;;-17.32;100.00
69848;BME280;57143;55.940;37.496;2023-01-09T06:29:53;101202.53;;;-17.38;100.00
69848;BME280;57143;55.940;37.496;2023-01-09T06:32:20;101206.78;;;-17.26;100.00
69848;BME280;57143;55.940;37.496;2023-01-09T06:34:47;101195.53;;;-17.22;100.00
69848;BME280;57143;55.940;37.496;2023-01-09T06:37:14;101197.25;;;-17.21;100.00
69848;BME280;57143;55.940;37.496;2023-01-09T06:39:41;101144.81;;;-17.50;100.00
69848;BME280;57143;55.940;37.496;2023-01-09T06:42:08;101198.91;;;-17.11;100.00
69848;BME280;57143;55.940;37.496;2023-01-09T06:44:37;101205.78;;;-17.06;100.00
69848;BME280;57143;55.940;37.496;2023-01-09T06:47:04;101198.81;;;-16.96;100.00
69848;BME280;57143;55.940;37.496;2023-01-09T06:49:32;101167.78;;;-17.05;100.00
69848;BME280;57143;55.940;37.496;2023-01-09T06:51:59;101195.25;;;-16.81;100.00
69848;BME280;57143;55.940;37.496;2023-01-09T06:54:30;101200.41;;;-16.78;100.00
69848;BME280;57143;55.940;37.496;2023-01-09T06:56:57;101211.59;;;-16.73;100.00
69848;BME280;57143;55.940;37.496;2023-01-09T06:59:25;101207.25;;;-16.71;100.00
69848;BME280;57143;55.940;37.496;2023-01-09T07:01:53;101203.88;;;-16.79;100.00
69848;BME280;57143;55.940;37.496;2023-01-09T07:04:21;101194.38;;;-16.83;100.00
69848;BME280;57143;55.940;37.496;2023-01-09T07:06:48;101203.91;;;-16.84;100.00
69848;BME280;57143;55.940;37.496;2023-01-09T07:09:15;101176.34;;;-16.93;100.00
69848;BME280;57143;55.940;37.496;2023-01-09T07:11:42;101204.69;;;-16.73;100.00
69848;BME280;57143;55.940;37.496;2023-01-09T07:14:10;101198.63;;;-16.72;100.00
69848;BME280;57143;55.940;37.496;2023-01-09T07:16:37;101208.13;;;-16.71;100.00
69848;BME280;57143;55.940;37.496;2023-01-09T07:19:06;101197.78;;;-16.77;100.00
69848;BME280;57143;55.940;37.496;2023-01-09T07:21:33;101221.03;;;-16.66;100.00
69848;BME280;57143;55.940;37.496;2023-01-09T07:24:00;101230.56;;;-16.70;100.00
69848;BME280;57143;55.940;37.496;2023-01-09T07:26:27;101217.63;;;-16.67;100.00
69848;BME280;57143;55.940;37.496;2023-01-09T07:28:55;101230.56;;;-16.70;100.00
69848;BME280;57143;55.940;37.496;2023-01-09T07:31:22;101215.88;;;-16.69;100.00
69848;BME280;57143;55.940;37.496;2023-01-09T07:33:49;101209.03;;;-16.78;100.00
69848;BME280;57143;55.940;37.496;2023-01-09T07:36:18;101209.88;;;-16.73;100.00
69848;BME280;57143;55.940;37.496;2023-01-09T07:38:45;101223.69;;;-16.72;100.00
69848;BME280;57143;55.940;37.496;2023-01-09T07:41:13;101208.16;;;-16.78;100.00
69848;BME280;57143;55.940;37.496;2023-01-09T07:43:40;101190.06;;;-16.81;100.00
69848;BME280;57143;55.940;37.496;2023-01-09T07:46:07;101205.50;;;-16.69;100.00
69848;BME280;57143;55.940;37.496;2023-01-09T07:48:34;101209.03;;;-16.78;100.00
69848;BME280;57143;55.940;37.496;2023-01-09T07:51:01;101215.13;;;-16.79;100.00
69848;BME280;57143;55.940;37.496;2023-01-09T07:53:29;101228.97;;;-16.84;100.00
69848;BME280;57143;55.940;37.496;2023-01-09T07:55:56;101228.06;;;-16.77;100.00
69848;BME280;57143;55.940;37.496;2023-01-09T07:58:24;101222.88;;;-16.79;100.00
69848;BME280;57143;55.940;37.496;2023-01-09T08:00:51;101212.53;;;-16.85;100.00
69848;BME280;57143;55.940;37.496;2023-01-09T08:03:18;101216.88;;;-16.82;100.00
69848;BME280;57143;55.940;37.496;2023-01-09T08:05:45;101196.06;;;-16.78;100.00
69848;BME280;57143;55.940;37.496;2023-01-09T08:08:12;101213.28;;;-16.65;100.00
69848;BME280;57143;55.940;37.496;2023-01-09T08:10:41;101210.66;;;-16.63;100.00
69848;BME280;57143;55.940;37.496;2023-01-09T08:13:09;101196.81;;;-16.62;100.00
69848;BME280;57143;55.940;37.496;2023-01-09T08:15:36;101183.91;;;-16.67;100.00
69848;BME280;57143;55.940;37.496;2023-01-09T08:18:03;101224.22;;;-16.39;100.00
69848;BME280;57143;55.940;37.496;2023-01-09T08:20:30;101204.44;;;-16.46;100.00
69848;BME280;57143;55.940;37.496;2023-01-09T08:22:57;101211.28;;;-16.42;100.00
69848;BME280;57143;55.940;37.496;2023-01-09T08:25:25;101231.28;;;-16.50;100.00
69848;BME280;57143;55.940;37.496;2023-01-09T08:27:53;101213.16;;;-16.50;100.00
69848;BME280;57143;55.940;37.496;2023-01-09T08:30:21;101206.13;;;-16.43;100.00
69848;BME280;57143;55.940;37.496;2023-01-09T08:32:49;101193.25;;;-16.48;100.00
69848;BME280;57143;55.940;37.496;2023-01-09T08:35:17;101209.44;;;-16.28;100.00
69848;BME280;57143;55.940;37.496;2023-01-09T08:37:44;101208.56;;;-16.27;100.00
69848;BME280;57143;55.940;37.496;2023-01-09T08:40:13;101184.63;;;-16.50;100.00
69848;BME280;57143;55.940;37.496;2023-01-09T08:42:40;101215.72;;;-16.48;100.00
69848;BME280;57143;55.940;37.496;2023-01-09T08:45:26;101208.88;;;-16.55;100.00
69848;BME280;57143;55.940;37.496;2023-01-09T08:48:11;101201.03;;;-16.52;100.00
69848;BME280;57143;55.940;37.496;2023-01-09T08:50:39;101208.69;;;-16.42;100.00
69848;BME280;57143;55.940;37.496;2023-01-09T08:53:06;101186.41;;;-16.59;100.00
69848;BME280;57143;55.940;37.496;2023-01-09T08:55:33;101207.09;;;-16.50;100.00
69848;BME280;57143;55.940;37.496;2023-01-09T08:58:00;101184.47;;;-16.39;100.00
69848;BME280;57143;55.940;37.496;2023-01-09T09:00:29;101197.47;;;-16.44;100.00
69848;BME280;57143;55.940;37.496;2023-01-09T09:02:57;101189.66;;;-16.38;100.00
69848;BME280;57143;55.940;37.496;2023-01-09T09:05:27;101145.13;;;-16.79;100.00
69848;BME280;57143;55.940;37.496;2023-01-09T09:07:54;101183.84;;;-16.61;100.00
69848;BME280;57143;55.940;37.496;2023-01-09T09:10:23;101164.94;;;-16.75;100.00
69848;BME280;57143;55.940;37.496;2023-01-09T09:12:53;101173.50;;;-16.64;100.00
69848;BME280;57143;55.940;37.496;2023-01-09T09:15:21;101157.06;;;-16.60;100.00
69848;BME280;57143;55.940;37.496;2023-01-09T09:17:52;101163.94;;;-16.59;100.00
69848;BME280;57143;55.940;37.496;2023-01-09T09:20:20;101154.50;;;-16.66;100.00
69848;BME280;57143;55.940;37.496;2023-01-09T09:22:48;101154.50;;;-16.66;100.00
69848;BME280;57143;55.940;37.496;2023-01-09T09:25:16;101154.47;;;-16.64;100.00
69848;BME280;57143;55.940;37.496;2023-01-09T09:27:43;101150.97;;;-16.57;100.00
69848;BME280;57143;55.940;37.496;2023-01-09T09:30:11;101110.50;;;-16.72;100.00
69848;BME280;57143;55.940;37.496;2023-01-09T09:32:41;101140.41;;;-16.44;100.00
69848;BME280;57143;55.940;37.496;2023-01-09T09:35:11;101134.31;;;-16.40;100.00
69848;BME280;57143;55.940;37.496;2023-01-09T09:37:38;101139.38;;;-16.26;100.00
69848;BME280;57143;55.940;37.496;2023-01-09T09:40:11;101137.84;;;-16.45;100.00
69848;BME280;57143;55.940;37.496;2023-01-09T09:43:03;101136.03;;;-16.39;100.00
69848;BME280;57143;55.940;37.496;2023-01-09T09:45:57;101143.84;;;-16.42;100.00
69848;BME280;57143;55.940;37.496;2023-01-09T09:48:32;101130.22;;;-16.59;100.00
69848;BME280;57143;55.940;37.496;2023-01-09T09:51:23;101089.69;;;-16.66;100.00
69848;BME280;57143;55.940;37.496;2023-01-09T09:53:57;101120.53;;;-16.43;100.00
69848;BME280;57143;55.940;37.496;2023-01-09T09:56:26;101115.44;;;-16.51;100.00
69848;BME280;57143;55.940;37.496;2023-01-09T09:58:58;101117.25;;;-16.57;100.00
69848;BME280;57143;55.940;37.496;2023-01-09T10:01:35;101078.56;;;-16.75;100.00
69848;BME280;57143;55.940;37.496;2023-01-09T10:04:06;101107.81;;;-16.66;100.00
69848;BME280;57143;55.940;37.496;2023-01-09T10:06:41;101082.09;;;-16.87;100.00
69848;BME280;57143;55.940;37.496;2023-01-09T10:09:16;101097.53;;;-16.75;100.00
69848;BME280;57143;55.940;37.496;2023-01-09T10:11:54;101066.72;;;-17.05;100.00
69848;BME280;57143;55.940;37.496;2023-01-09T10:14:25;101097.75;;;-16.96;100.00
69848;BME280;57143;55.940;37.496;2023-01-09T10:17:22;101058.25;;;-17.25;100.00
69848;BME280;57143;55.940;37.496;2023-01-09T10:22:59;101042.53;;;-17.04;100.00
69848;BME280;57143;55.940;37.496;2023-01-09T10:25:31;101077.94;;;-17.02;100.00
69848;BME280;57143;55.940;37.496;2023-01-09T10:28:16;101083.06;;;-16.97;100.00
69848;BME280;57143;55.940;37.496;2023-01-09T10:30:49;101027.25;;;-17.34;100.00
69848;BME280;57143;55.940;37.496;2023-01-09T10:33:33;101080.44;;;-16.96;100.00
69848;BME280;57143;55.940;37.496;2023-01-09T10:36:23;101078.75;;;-16.98;100.00
69848;BME280;57143;55.940;37.496;2023-01-09T10:38:59;101079.66;;;-17.02;100.00
69848;BME280;57143;55.940;37.496;2023-01-09T10:41:32;101100.34;;;-16.96;100.00
69848;BME280;57143;55.940;37.496;2023-01-09T10:44:05;101093.44;;;-16.97;100.00
69848;BME280;57143;55.940;37.496;2023-01-09T10:46:36;101083.03;;;-16.93;100.00
69848;BME280;57143;55.940;37.496;2023-01-09T10:49:10;101049.44;;;-17.03;100.00
69848;BME280;57143;55.940;37.496;2023-01-09T10:51:45;101081.16;;;-16.78;100.00
69848;BME280;57143;55.940;37.496;2023-01-09T10:54:16;100988.38;;;-17.30;100.00
69848;BME280;57143;55.940;37.496;2023-01-09T10:56:53;101100.00;;;-16.60;100.00
69848;BME280;57143;55.940;37.496;2023-01-09T10:59:21;101056.97;;;-16.79;100.00
69848;BME280;57143;55.940;37.496;2023-01-09T11:01:49;101073.25;;;-16.63;100.00
69848;BME280;57143;55.940;37.496;2023-01-09T11:04:23;101088.81;;;-16.66;100.00
69848;BME280;57143;55.940;37.496;2023-01-09T11:06:54;101028.75;;;-17.09;100.00
69848;BME280;57143;55.940;37.496;2023-01-09T11:09:24;101077.63;;;-16.73;100.00
69848;BME280;57143;55.940;37.496;2023-01-09T11:11:51;101087.09;;;-16.67;100.00
69848;BME280;57143;55.940;37.496;2023-01-09T11:14:24;101011.56;;;-17.18;100.00
69848;BME280;57143;55.940;37.496;2023-01-09T11:16:57;101088.91;;;-16.77;100.00
69848;BME280;57143;55.940;37.496;2023-01-09T11:19:26;101059.78;;;-17.05;100.00
69848;BME280;57143;55.940;37.496;2023-01-09T11:22:05;101094.97;;;-16.76;100.00
69848;BME280;57143;55.940;37.496;2023-01-09T11:24:34;101080.38;;;-16.87;100.00
69848;BME280;57143;55.940;37.496;2023-01-09T11:27:17;101080.34;;;-16.85;100.00
69848;BME280;57143;55.940;37.496;2023-01-09T11:30:12;101080.38;;;-16.87;100.00
69848;BME280;57143;55.940;37.496;2023-01-09T11:32:40;101085.56;;;-16.88;100.00
69848;BME280;57143;55.940;37.496;2023-01-09T11:35:16;101089.84;;;-16.81;100.00
69848;BME280;57143;55.940;37.496;2023-01-09T11:37:45;101091.41;;;-16.66;100.00
69848;BME280;57143;55.940;37.496;2023-01-09T11:40:19;101057.03;;;-16.85;100.00
69848;BME280;57143;55.940;37.496;2023-01-09T11:43:13;101094.97;;;-16.76;100.00
69848;BME280;57143;55.940;37.496;2023-01-09T11:45:44;101079.47;;;-16.82;100.00
69848;BME280;57143;55.940;37.496;2023-01-09T11:48:26;101105.31;;;-16.76;100.00
69848;BME280;57143;55.940;37.496;2023-01-09T11:50:57;101087.28;;;-16.87;100.00
69848;BME280;57143;55.940;37.496;2023-01-09T11:53:25;101066.69;;;-17.01;100.00
69848;BME280;57143;55.940;37.496;2023-01-09T11:55:58;101090.78;;;-16.90;100.00
69848;BME280;57143;55.940;37.496;2023-01-09T11:58:30;101093.34;;;-16.87;100.00
69848;BME280;57143;55.940;37.496;2023-01-09T12:01:07;101067.53;;;-16.99;100.00
69848;BME280;57143;55.940;37.496;2023-01-09T12:03:55;101092.47;;;-16.87;100.00
69848;BME280;57143;55.940;37.496;2023-01-09T12:06:35;101076.13;;;-16.95;100.00
69848;BME280;57143;55.940;37.496;2023-01-09T12:09:07;101077.84;;;-16.91;100.00
69848;BME280;57143;55.940;37.496;2023-01-09T12:11:41;101063.22;;;-16.98;100.00
69848;BME280;57143;55.940;37.496;2023-01-09T12:14:33;101087.28;;;-16.84;100.00
69848;BME280;57143;55.940;37.496;2023-01-09T12:17:14;101104.50;;;-16.80;100.00
69848;BME280;57143;55.940;37.496;2023-01-09T12:22:54;101086.34;;;-16.80;100.00
69848;BME280;57143;55.940;37.496;2023-01-09T12:25:36;101057.16;;;-16.99;100.00
69848;BME280;57143;55.940;37.496;2023-01-09T12:28:34;101072.66;;;-16.91;100.00
69848;BME280;57143;55.940;37.496;2023-01-09T12:31:18;101067.50;;;-16.93;100.00
69848;BME280;57143;55.940;37.496;2023-01-09T12:33:55;101057.19;;;-17.00;100.00
69848;BME280;57143;55.940;37.496;2023-01-09T12:36:36;101090.69;;;-16.80;100.00
69848;BME280;57143;55.940;37.496;2023-01-09T12:39:14;101075.25;;;-16.96;100.00
69848;BME280;57143;55.940;37.496;2023-01-09T12:41:56;101088.13;;;-16.85;100.00
69848;BME280;57143;55.940;37.496;2023-01-09T12:44:50;101070.06;;;-16.93;100.00
69848;BME280;57143;55.940;37.496;2023-01-09T12:47:43;101079.47;;;-16.86;100.00
69848;BME280;57143;55.940;37.496;2023-01-09T12:50:32;101077.75;;;-16.80;100.00
69848;BME280;57143;55.940;37.496;2023-01-09T12:53:08;101088.97;;;-16.81;100.00